createdAt,value
2018-07-14T00:00:10.527Z,94.19
2018-07-14T00:02:39.407Z,92.90
2018-07-14T00:05:08.238Z,93.21
2018-07-14T00:07:36.965Z,94.05
2018-07-14T00:10:05.821Z,94.16
2018-07-14T00:12:34.531Z,95.35
2018-07-14T00:15:03.250Z,95.07
2018-07-14T00:17:31.975Z,94.62
2018-07-14T00:20:00.734Z,95.31
2018-07-14T00:22:29.450Z,96.28
2018-07-14T00:24:58.224Z,96.60
2018-07-14T00:27:26.941Z,95.76
2018-07-14T00:29:55.658Z,96.56
2018-07-14T00:32:24.394Z,96.73
2018-07-14T00:34:53.096Z,95.81
2018-07-14T00:37:21.842Z,97.11
2018-07-14T00:39:50.565Z,96.45
2018-07-14T00:42:19.245Z,95.76
2018-07-14T00:44:48.015Z,94.39
2018-07-14T00:47:16.742Z,94.87
2018-07-14T00:49:45.441Z,95.57
2018-07-14T00:52:14.156Z,95.01
2018-07-14T00:54:42.906Z,95.18
2018-07-14T00:57:11.658Z,95.74
2018-07-14T00:59:40.375Z,96.52
2018-07-14T01:02:09.192Z,96.85
2018-07-14T01:04:37.897Z,93.85
2018-07-14T01:07:06.585Z,94.43
2018-07-14T01:09:35.312Z,95.66
2018-07-14T01:12:04.042Z,90.97
2018-07-14T01:14:32.761Z,91.31
2018-07-14T01:17:01.468Z,88.96
2018-07-14T01:19:30.182Z,89.12
2018-07-14T01:21:58.953Z,89.10
2018-07-14T01:24:27.648Z,88.80
2018-07-14T01:26:56.389Z,89.30
2018-07-14T01:29:25.199Z,90.01
2018-07-14T01:31:53.941Z,89.66
2018-07-14T01:34:22.709Z,90.35
2018-07-14T01:36:51.401Z,90.54
2018-07-14T01:39:20.245Z,90.66
2018-07-14T01:41:49.073Z,89.90
2018-07-14T01:44:17.786Z,89.71
2018-07-14T01:46:46.489Z,89.91
2018-07-14T01:49:15.191Z,88.41
2018-07-14T01:51:43.905Z,89.70
2018-07-14T01:54:12.658Z,89.41
2018-07-14T01:56:41.348Z,88.99
2018-07-14T01:59:10.072Z,88.00
2018-07-14T02:01:38.785Z,87.73
2018-07-14T02:04:07.502Z,88.06
2018-07-14T02:06:36.221Z,88.12
2018-07-14T02:09:05.674Z,87.74
2018-07-14T02:11:34.428Z,86.88
2018-07-14T02:14:03.180Z,87.19
2018-07-14T02:16:31.908Z,86.83
2018-07-14T02:19:00.805Z,86.71
2018-07-14T02:21:29.508Z,87.93
2018-07-14T02:23:58.213Z,88.20
2018-07-14T02:26:26.952Z,88.43
2018-07-14T02:28:55.654Z,88.28
2018-07-14T02:31:24.491Z,89.41
2018-07-14T02:33:53.210Z,88.27
2018-07-14T02:36:21.913Z,88.70
2018-07-14T02:38:50.673Z,88.81
2018-07-14T02:41:19.397Z,90.42
2018-07-14T02:43:48.158Z,92.42
2018-07-14T02:46:16.922Z,89.87
2018-07-14T02:48:45.631Z,89.43
2018-07-14T02:51:14.332Z,88.56
2018-07-14T02:53:43.071Z,88.84
2018-07-14T02:56:11.801Z,90.70
2018-07-14T02:58:40.537Z,91.28
2018-07-14T03:01:09.260Z,89.95
2018-07-14T03:03:37.974Z,89.86
2018-07-14T03:06:06.733Z,90.02
2018-07-14T03:08:35.559Z,90.06
2018-07-14T03:11:04.320Z,88.67
2018-07-14T03:13:33.049Z,86.85
2018-07-14T03:16:01.799Z,86.71
2018-07-14T03:18:30.493Z,84.37
2018-07-14T03:20:59.253Z,85.32
2018-07-14T03:23:27.971Z,84.30
2018-07-14T03:25:56.678Z,85.54
2018-07-14T03:28:25.404Z,83.74
2018-07-14T03:30:54.342Z,83.49
2018-07-14T03:33:23.074Z,83.51
2018-07-14T03:35:52.291Z,82.20
2018-07-14T03:38:21.049Z,83.41
2018-07-14T03:40:49.897Z,83.23
2018-07-14T03:43:19.189Z,78.01
2018-07-14T03:45:47.936Z,74.31
2018-07-14T03:48:16.677Z,67.48
2018-07-14T03:50:45.417Z,65.45
2018-07-14T03:53:14.139Z,67.37
2018-07-14T03:55:42.870Z,70.32
2018-07-14T03:58:11.765Z,69.78
2018-07-14T04:00:40.486Z,68.22
2018-07-14T04:03:09.221Z,64.20
2018-07-14T04:05:37.958Z,64.18
2018-07-14T04:08:06.691Z,66.54
2018-07-14T04:10:35.563Z,67.54
2018-07-14T04:13:04.286Z,69.74
2018-07-14T04:15:33.015Z,70.06
2018-07-14T04:18:04.893Z,72.15
2018-07-14T04:20:36.307Z,73.38
2018-07-14T04:23:05.077Z,72.90
2018-07-14T04:25:33.933Z,72.81
2018-07-14T04:28:03.009Z,74.50
2018-07-14T04:30:31.693Z,74.51
2018-07-14T04:33:00.428Z,72.67
2018-07-14T04:35:29.193Z,69.85
2018-07-14T04:37:57.972Z,69.11
2018-07-14T04:40:26.698Z,66.24
2018-07-14T04:42:55.469Z,66.66
2018-07-14T04:45:24.194Z,67.01
2018-07-14T04:47:53.035Z,65.10
2018-07-14T04:50:21.761Z,63.19
2018-07-14T04:52:50.495Z,62.23
2018-07-14T04:55:19.189Z,64.76
2018-07-14T04:57:47.922Z,65.35
2018-07-14T05:00:16.665Z,66.07
2018-07-14T05:02:45.450Z,61.38
2018-07-14T05:05:14.627Z,58.37
2018-07-14T05:07:43.340Z,52.46
2018-07-14T05:10:12.051Z,44.73
2018-07-14T05:12:40.813Z,45.28
2018-07-14T05:15:09.543Z,40.43
2018-07-14T05:17:38.369Z,39.00
2018-07-14T05:20:07.311Z,36.91
2018-07-14T05:22:36.063Z,34.41
2018-07-14T05:25:04.863Z,30.86
2018-07-14T05:27:33.583Z,32.67
2018-07-14T05:30:02.319Z,34.48
2018-07-14T05:32:31.088Z,37.52
2018-07-14T05:34:59.821Z,38.62
2018-07-14T05:37:28.559Z,40.50
2018-07-14T05:39:57.269Z,44.58
2018-07-14T05:42:25.993Z,41.77
2018-07-14T05:44:54.697Z,40.42
2018-07-14T05:47:23.398Z,43.18
2018-07-14T05:49:52.154Z,42.42
2018-07-14T05:52:20.898Z,44.35
2018-07-14T05:54:49.626Z,44.20
2018-07-14T05:57:18.343Z,46.80
2018-07-14T05:59:47.048Z,47.55
2018-07-14T06:02:15.809Z,49.19
2018-07-14T06:04:44.530Z,48.30
2018-07-14T06:07:13.416Z,47.50
2018-07-14T06:09:42.131Z,49.26
2018-07-14T06:12:10.860Z,50.46
2018-07-14T06:14:39.633Z,51.06
2018-07-14T06:17:08.404Z,53.50
2018-07-14T06:19:37.198Z,50.81
2018-07-14T06:22:05.908Z,52.54
2018-07-14T06:24:34.650Z,53.06
2018-07-14T06:27:03.427Z,54.26
2018-07-14T06:29:32.184Z,53.76
2018-07-14T06:32:00.931Z,56.63
2018-07-14T06:34:29.669Z,52.36
2018-07-14T06:36:58.401Z,52.09
2018-07-14T06:39:27.124Z,50.98
2018-07-14T06:41:55.850Z,48.41
2018-07-14T06:44:24.565Z,43.67
2018-07-14T06:46:53.478Z,41.25
2018-07-14T06:49:22.232Z,39.43
2018-07-14T06:51:51.138Z,39.00
2018-07-14T06:54:19.895Z,42.35
2018-07-14T06:56:48.678Z,40.69
2018-07-14T06:59:18.481Z,44.43
2018-07-14T07:01:47.243Z,42.38
2018-07-14T07:04:15.993Z,42.28
2018-07-14T07:06:45.053Z,43.22
2018-07-14T07:09:13.795Z,42.36
2018-07-14T07:11:42.569Z,42.46
2018-07-14T07:14:11.290Z,40.49
2018-07-14T07:16:40.055Z,40.75
2018-07-14T07:19:08.765Z,39.79
2018-07-14T07:21:37.457Z,42.57
2018-07-14T07:24:06.403Z,43.18
2018-07-14T07:26:35.311Z,45.44
2018-07-14T07:29:04.091Z,44.86
2018-07-14T07:31:32.794Z,46.73
2018-07-14T07:34:01.599Z,45.50
2018-07-14T07:36:30.452Z,44.47
2018-07-14T07:38:59.475Z,39.95
2018-07-14T07:41:28.195Z,37.13
2018-07-14T07:43:56.914Z,34.65
2018-07-14T07:46:25.832Z,34.77
2018-07-14T07:48:54.587Z,34.43
2018-07-14T07:51:23.299Z,36.00
2018-07-14T07:53:52.002Z,36.83
2018-07-14T07:56:20.702Z,37.38
2018-07-14T07:58:49.436Z,34.37
2018-07-14T08:01:18.170Z,34.25
2018-07-14T08:03:46.880Z,35.91
2018-07-14T08:06:15.596Z,37.40
2018-07-14T08:08:44.342Z,39.90
2018-07-14T08:11:13.039Z,41.34
2018-07-14T08:13:41.773Z,41.16
2018-07-14T08:16:10.543Z,40.96
2018-07-14T08:18:39.233Z,37.47
2018-07-14T08:21:08.055Z,35.19
2018-07-14T08:23:36.786Z,35.55
2018-07-14T08:26:05.596Z,32.77
2018-07-14T08:28:34.320Z,32.51
2018-07-14T08:31:03.010Z,31.72
2018-07-14T08:33:31.729Z,30.50
2018-07-14T08:36:00.460Z,29.89
2018-07-14T08:38:29.225Z,29.65
2018-07-14T08:40:57.933Z,29.17
2018-07-14T08:43:26.650Z,26.45
2018-07-14T08:45:55.371Z,27.41
2018-07-14T08:48:24.253Z,27.65
2018-07-14T08:50:53.001Z,28.29
2018-07-14T08:53:21.732Z,28.35
2018-07-14T08:55:50.459Z,29.42
2018-07-14T08:58:21.487Z,28.92
2018-07-14T09:00:50.318Z,27.95
2018-07-14T09:03:19.072Z,29.26
2018-07-14T09:05:47.799Z,27.59
2018-07-14T09:08:16.519Z,29.93
2018-07-14T09:10:45.474Z,27.84
2018-07-14T09:13:14.176Z,30.22
2018-07-14T09:15:42.934Z,28.84
2018-07-14T09:18:11.671Z,27.73
2018-07-14T09:20:40.458Z,28.76
2018-07-14T09:23:09.188Z,31.20
2018-07-14T09:25:37.928Z,26.42
2018-07-14T09:28:06.908Z,26.87
2018-07-14T09:30:35.738Z,26.53
2018-07-14T09:33:04.598Z,28.82
2018-07-14T09:35:33.382Z,32.19
2018-07-14T09:38:02.157Z,32.26
2018-07-14T09:40:30.866Z,33.54
2018-07-14T09:42:59.594Z,32.36
2018-07-14T09:45:28.372Z,31.44
2018-07-14T09:47:57.961Z,29.27
2018-07-14T09:50:26.678Z,30.81
2018-07-14T09:52:55.402Z,29.44
2018-07-14T09:55:24.112Z,29.20
2018-07-14T09:57:52.908Z,30.24
2018-07-14T10:00:26.749Z,32.20
2018-07-14T10:02:55.453Z,30.66
2018-07-14T10:05:24.205Z,31.18
2018-07-14T10:07:52.920Z,31.35
2018-07-14T10:10:21.617Z,34.10
2018-07-14T10:12:50.355Z,31.18
2018-07-14T10:15:19.098Z,31.67
2018-07-14T10:17:47.869Z,29.52
2018-07-14T10:20:16.580Z,30.69
2018-07-14T10:22:45.284Z,29.31
2018-07-14T10:25:14.056Z,28.79
2018-07-14T10:27:42.949Z,26.81
2018-07-14T10:30:11.689Z,27.72
2018-07-14T10:32:40.434Z,26.71
2018-07-14T10:35:09.163Z,27.93
2018-07-14T10:37:37.891Z,27.65
2018-07-14T10:40:06.653Z,29.02
2018-07-14T10:42:35.463Z,29.58
2018-07-14T10:45:04.381Z,30.68
2018-07-14T10:47:33.118Z,28.79
2018-07-14T10:50:01.852Z,30.71
2018-07-14T10:52:30.596Z,27.73
2018-07-14T10:54:59.349Z,28.15
2018-07-14T10:57:28.070Z,26.85
2018-07-14T10:59:56.783Z,27.68
2018-07-14T11:02:25.494Z,28.03
2018-07-14T11:04:54.208Z,28.97
2018-07-14T11:07:22.974Z,30.55
2018-07-14T11:09:51.697Z,29.92
2018-07-14T11:12:20.405Z,29.72
2018-07-14T11:14:49.126Z,28.25
2018-07-14T11:17:17.850Z,28.86
2018-07-14T11:19:46.600Z,30.49
2018-07-14T11:22:15.314Z,28.64
2018-07-14T11:24:44.015Z,27.94
2018-07-14T11:27:12.730Z,28.92
2018-07-14T11:29:41.451Z,29.92
2018-07-14T11:32:10.188Z,28.26
2018-07-14T11:34:38.899Z,26.57
2018-07-14T11:37:07.618Z,26.17
2018-07-14T11:39:36.561Z,27.66
2018-07-14T11:42:05.709Z,26.54
2018-07-14T11:44:34.465Z,26.97
2018-07-14T11:47:03.469Z,27.98
2018-07-14T11:49:32.381Z,28.56
2018-07-14T11:52:01.537Z,30.47
2018-07-14T11:54:30.757Z,28.89
2018-07-14T11:56:59.502Z,27.32
2018-07-14T11:59:28.222Z,25.32
2018-07-14T12:01:57.008Z,25.42
2018-07-14T12:04:25.711Z,26.99
2018-07-14T12:06:54.434Z,24.95
2018-07-14T12:09:23.169Z,24.22
2018-07-14T12:11:51.887Z,25.61
2018-07-14T12:14:20.610Z,26.04
2018-07-14T12:16:49.350Z,29.19
2018-07-14T12:19:18.086Z,30.79
2018-07-14T12:21:46.800Z,29.40
2018-07-14T12:24:15.526Z,29.32
2018-07-14T12:26:44.298Z,32.80
2018-07-14T12:29:12.993Z,33.69
2018-07-14T12:31:41.718Z,34.65
2018-07-14T12:34:10.565Z,34.85
2018-07-14T12:36:39.505Z,34.41
2018-07-14T12:39:08.321Z,31.80
2018-07-14T12:41:37.045Z,32.18
2018-07-14T12:44:05.779Z,34.92
2018-07-14T12:46:34.557Z,36.18
2018-07-14T12:49:03.332Z,38.61
2018-07-14T12:51:32.130Z,35.39
2018-07-14T12:54:00.871Z,36.63
2018-07-14T12:56:29.594Z,35.07
2018-07-14T12:58:58.350Z,35.55
2018-07-14T13:01:27.062Z,36.72
2018-07-14T13:03:55.791Z,37.43
2018-07-14T13:06:24.539Z,38.12
2018-07-14T13:08:53.289Z,37.87
2018-07-14T13:11:22.025Z,39.65
2018-07-14T13:13:50.815Z,38.69
2018-07-14T13:16:19.534Z,39.40
2018-07-14T13:18:48.282Z,37.40
2018-07-14T13:21:17.141Z,39.52
2018-07-14T13:23:45.917Z,39.18
2018-07-14T13:26:14.669Z,38.45
2018-07-14T13:28:43.366Z,37.30
2018-07-14T13:31:12.131Z,36.85
2018-07-14T13:33:40.866Z,37.29
2018-07-14T13:36:09.621Z,38.62
2018-07-14T13:38:38.345Z,38.49
2018-07-14T13:41:07.103Z,39.01
2018-07-14T13:43:35.925Z,38.21
2018-07-14T13:46:04.650Z,38.79
2018-07-14T13:48:33.369Z,39.16
2018-07-14T13:51:02.146Z,38.67
2018-07-14T13:53:31.162Z,38.53
2018-07-14T13:55:59.947Z,39.42
2018-07-14T13:58:29.927Z,38.54
2018-07-14T14:00:58.723Z,39.47
2018-07-14T14:03:27.445Z,40.43
2018-07-14T14:08:58.641Z,38.06
2018-07-14T14:11:28.286Z,40.52
2018-07-14T14:13:57.052Z,41.13
2018-07-14T14:16:25.782Z,39.90
2018-07-14T14:18:54.513Z,39.39
2018-07-14T14:21:23.266Z,40.10
2018-07-14T14:23:52.013Z,39.58
2018-07-14T14:26:21.410Z,39.32
2018-07-14T14:28:50.236Z,40.13
2018-07-14T14:31:18.958Z,40.04
2018-07-14T14:33:47.738Z,41.63
2018-07-14T14:36:16.531Z,40.63
2018-07-14T14:38:45.538Z,40.43
2018-07-14T14:41:14.261Z,42.70
2018-07-14T14:43:43.052Z,40.83
2018-07-14T14:46:11.794Z,41.12
2018-07-14T14:48:40.562Z,42.18
2018-07-14T14:51:09.366Z,41.67
2018-07-14T14:53:38.097Z,42.74
2018-07-14T14:56:07.084Z,43.08
2018-07-14T14:58:35.850Z,41.62
2018-07-14T15:01:05.473Z,43.48
2018-07-14T15:03:34.481Z,42.56
2018-07-14T15:06:03.343Z,43.35
2018-07-14T15:08:32.160Z,44.32
2018-07-14T15:11:00.891Z,43.24
2018-07-14T15:13:29.882Z,43.28
2018-07-14T15:15:58.627Z,43.46
2018-07-14T15:18:27.724Z,44.40
2018-07-14T15:20:56.502Z,45.07
2018-07-14T15:23:25.998Z,42.91
2018-07-14T15:25:54.817Z,44.07
2018-07-14T15:28:23.573Z,43.96
2018-07-14T15:30:52.950Z,45.09
2018-07-14T15:33:21.900Z,44.30
2018-07-14T15:35:50.651Z,45.20
2018-07-14T15:38:19.434Z,45.26
2018-07-14T15:40:48.171Z,42.90
2018-07-14T15:43:16.975Z,43.75
2018-07-14T15:45:45.730Z,45.01
2018-07-14T15:48:14.523Z,45.14
2018-07-14T15:50:43.282Z,43.86
2018-07-14T15:53:12.142Z,44.66
2018-07-14T15:55:40.912Z,45.67
2018-07-14T15:58:09.671Z,46.51
2018-07-14T16:00:38.425Z,45.54
2018-07-14T16:03:07.447Z,45.68
2018-07-14T16:05:39.701Z,46.21
2018-07-14T16:08:08.718Z,47.29
2018-07-14T16:10:37.494Z,46.69
2018-07-14T16:13:06.338Z,47.42
2018-07-14T16:15:35.287Z,47.02
2018-07-14T16:18:04.052Z,46.85
2018-07-14T16:20:32.806Z,46.82
2018-07-14T16:23:01.934Z,48.47
2018-07-14T16:25:30.743Z,48.56
2018-07-14T16:27:59.586Z,48.01
2018-07-14T16:30:28.337Z,48.55
2018-07-14T16:32:57.132Z,48.61
2018-07-14T16:35:25.874Z,48.70
2018-07-14T16:37:54.603Z,49.16
2018-07-14T16:40:23.326Z,49.44
2018-07-14T16:42:52.104Z,49.40
2018-07-14T16:45:20.818Z,50.13
2018-07-14T16:47:49.552Z,49.77
2018-07-14T16:50:18.571Z,50.75
2018-07-14T16:52:47.287Z,51.60
2018-07-14T16:55:16.074Z,51.62
2018-07-14T16:57:44.832Z,51.79
2018-07-14T17:00:13.598Z,52.48
2018-07-14T17:02:42.323Z,54.29
2018-07-14T17:05:11.049Z,53.06
2018-07-14T17:07:39.835Z,54.92
2018-07-14T17:10:08.569Z,54.39
2018-07-14T17:12:37.269Z,52.46
2018-07-14T17:15:05.994Z,53.68
2018-07-14T17:17:34.736Z,55.41
2018-07-14T17:20:03.496Z,56.26
2018-07-14T17:22:32.271Z,56.02
2018-07-14T17:25:00.979Z,55.14
2018-07-14T17:27:29.674Z,56.30
2018-07-14T17:29:58.425Z,57.79
2018-07-14T17:32:27.156Z,58.27
2018-07-14T17:34:55.863Z,60.75
2018-07-14T17:37:24.603Z,60.46
2018-07-14T17:39:53.346Z,62.62
2018-07-14T17:42:22.274Z,63.82
2018-07-14T17:44:51.099Z,59.99
2018-07-14T17:47:20.302Z,64.12
2018-07-14T17:49:49.118Z,66.21
2018-07-14T17:52:17.921Z,67.16
2018-07-14T17:54:46.657Z,66.79
2018-07-14T17:57:15.377Z,66.75
2018-07-14T17:59:44.133Z,67.10
2018-07-14T18:02:12.923Z,67.19
2018-07-14T18:04:41.802Z,70.79
2018-07-14T18:07:10.583Z,69.34
2018-07-14T18:09:39.454Z,70.10
2018-07-14T18:12:08.146Z,73.46
2018-07-14T18:14:37.019Z,69.97
2018-07-14T18:17:06.226Z,75.30
2018-07-14T18:19:35.029Z,71.50
2018-07-14T18:22:03.755Z,74.32
2018-07-14T18:24:32.463Z,73.87
2018-07-14T18:27:01.530Z,75.10
2018-07-14T18:29:30.288Z,73.42
2018-07-14T18:31:59.015Z,73.68
2018-07-14T18:34:27.770Z,73.81
2018-07-14T18:36:56.485Z,74.12
2018-07-14T18:39:25.310Z,75.59
2018-07-14T18:41:54.292Z,74.97
2018-07-14T18:44:23.195Z,75.66
2018-07-14T18:46:51.926Z,78.49
2018-07-14T18:49:20.709Z,77.73
2018-07-14T18:51:49.682Z,77.24
2018-07-14T18:54:18.388Z,75.36
2018-07-14T18:56:47.133Z,76.83
2018-07-14T18:59:15.882Z,70.13
2018-07-14T19:01:44.625Z,72.63
2018-07-14T19:04:13.498Z,70.46
2018-07-14T19:06:42.354Z,70.86
2018-07-14T19:09:11.235Z,70.67
2018-07-14T19:11:39.982Z,68.66
2018-07-14T19:14:08.720Z,67.81
2018-07-14T19:16:37.518Z,68.29
2018-07-14T19:19:06.358Z,69.59
2018-07-14T19:21:35.123Z,70.06
2018-07-14T19:24:03.902Z,69.95
2018-07-14T19:26:32.737Z,70.02
2018-07-14T19:29:01.490Z,69.81
2018-07-14T19:31:30.429Z,72.27
2018-07-14T19:33:59.266Z,70.96
2018-07-14T19:36:28.043Z,71.16
2018-07-14T19:38:56.969Z,69.92
2018-07-14T19:41:25.798Z,69.35
2018-07-14T19:43:54.754Z,68.26
2018-07-14T19:46:23.521Z,68.11
2018-07-14T19:48:52.319Z,66.69
2018-07-14T19:51:21.105Z,67.90
2018-07-14T19:53:49.960Z,67.42
2018-07-14T19:56:18.882Z,67.98
2018-07-14T19:58:47.649Z,67.28
2018-07-14T20:01:16.461Z,67.68
2018-07-14T20:03:45.193Z,67.08
2018-07-14T20:06:14.026Z,67.99
2018-07-14T20:08:42.759Z,67.18
2018-07-14T20:11:11.564Z,67.69
2018-07-14T20:13:40.378Z,67.50
2018-07-14T20:16:10.402Z,68.69
2018-07-14T20:18:40.202Z,68.35
2018-07-14T20:21:09.546Z,69.15
2018-07-14T20:23:38.736Z,69.52
2018-07-14T20:26:07.938Z,68.39
2018-07-14T20:28:37.150Z,67.91
2018-07-14T20:31:06.335Z,71.14
2018-07-14T20:33:35.541Z,71.22
2018-07-14T20:36:04.813Z,72.03
2018-07-14T20:38:34.141Z,71.07
2018-07-14T20:41:03.445Z,71.70
2018-07-14T20:43:32.725Z,72.45
2018-07-14T20:46:01.859Z,71.73
2018-07-14T20:48:30.861Z,71.08
2018-07-14T20:50:59.794Z,72.71
2018-07-14T20:53:29.127Z,71.63
2018-07-14T20:55:58.210Z,72.71
2018-07-14T20:58:27.511Z,70.91
2018-07-14T21:00:56.598Z,70.50
2018-07-14T21:03:25.830Z,71.93
2018-07-14T21:05:55.242Z,70.99
2018-07-14T21:08:24.515Z,71.13
2018-07-14T21:10:53.754Z,70.20
2018-07-14T21:13:22.736Z,69.61
2018-07-14T21:15:51.898Z,70.96
2018-07-14T21:18:21.109Z,70.48
2018-07-14T21:20:50.306Z,72.59
2018-07-14T21:23:19.501Z,72.57
2018-07-14T21:25:48.795Z,74.19
2018-07-14T21:28:18.074Z,74.63
2018-07-14T21:30:47.202Z,74.00
2018-07-14T21:33:16.403Z,74.67
2018-07-14T21:35:45.611Z,76.04
2018-07-14T21:38:14.861Z,77.16
2018-07-14T21:40:43.778Z,79.30
2018-07-14T21:43:13.086Z,79.78
2018-07-14T21:45:42.101Z,79.13
2018-07-14T21:48:11.323Z,80.44
2018-07-14T21:50:40.504Z,79.17
2018-07-14T21:53:09.670Z,79.12
2018-07-14T21:55:38.915Z,79.98
2018-07-14T21:58:08.056Z,79.75
2018-07-14T22:00:42.314Z,79.69
2018-07-14T22:03:11.566Z,80.19
2018-07-14T22:05:40.698Z,80.25
2018-07-14T22:08:09.990Z,80.10
2018-07-14T22:10:39.192Z,80.20
2018-07-14T22:13:08.390Z,81.74
2018-07-14T22:15:37.575Z,82.60
2018-07-14T22:18:06.804Z,83.35
2018-07-14T22:20:36.069Z,83.75
2018-07-14T22:23:05.116Z,83.81
2018-07-14T22:25:34.198Z,83.38
2018-07-14T22:28:03.069Z,83.97
2018-07-14T22:30:32.106Z,83.48
2018-07-14T22:33:01.346Z,84.70
2018-07-14T22:35:30.537Z,84.09
2018-07-14T22:37:59.745Z,83.85
2018-07-14T22:40:28.943Z,83.02
2018-07-14T22:42:58.164Z,84.14
2018-07-14T22:45:27.615Z,83.60
2018-07-14T22:47:56.646Z,83.87
2018-07-14T22:50:25.932Z,84.47
2018-07-14T22:52:55.146Z,85.56
2018-07-14T22:55:24.523Z,86.59
2018-07-14T22:57:53.733Z,86.17
2018-07-14T23:00:22.933Z,85.83
2018-07-14T23:02:52.145Z,86.36
2018-07-14T23:05:21.490Z,87.89
2018-07-14T23:07:50.678Z,87.67
2018-07-14T23:10:19.826Z,87.61
2018-07-14T23:12:49.046Z,87.11
2018-07-14T23:15:18.083Z,87.61
2018-07-14T23:17:47.244Z,88.98
2018-07-14T23:20:16.429Z,88.54
2018-07-14T23:22:45.729Z,88.11
2018-07-14T23:25:15.021Z,86.52
2018-07-14T23:27:44.117Z,87.77
2018-07-14T23:30:13.308Z,88.10
2018-07-14T23:32:42.552Z,87.71
2018-07-14T23:35:11.710Z,87.28
2018-07-14T23:37:40.909Z,88.52
2018-07-14T23:40:10.193Z,88.81
2018-07-14T23:42:39.098Z,88.11
2018-07-14T23:45:08.377Z,88.24
2018-07-14T23:47:37.294Z,89.02
2018-07-14T23:50:06.491Z,89.32
2018-07-14T23:52:35.696Z,89.90
2018-07-14T23:55:05.019Z,89.75
2018-07-14T23:57:34.217Z,88.11
